createdAt,value
2022-11-17T00:00:51.798Z,975.74
2022-11-17T00:01:51.783Z,975.71
2022-11-17T00:02:51.833Z,975.73
2022-11-17T00:03:51.775Z,975.71
2022-11-17T00:04:51.802Z,975.76
2022-11-17T00:05:51.792Z,975.75
2022-11-17T00:06:51.939Z,975.68
2022-11-17T00:07:51.748Z,975.70
2022-11-17T00:08:51.735Z,975.67
2022-11-17T00:09:51.731Z,975.69
2022-11-17T00:10:51.744Z,975.71
2022-11-17T00:11:51.711Z,975.70
2022-11-17T00:12:51.725Z,975.68
2022-11-17T00:13:51.710Z,975.67
2022-11-17T00:14:51.698Z,975.75
2022-11-17T00:15:51.701Z,975.71
2022-11-17T00:16:51.687Z,975.65
2022-11-17T00:17:51.683Z,975.64
2022-11-17T00:18:51.662Z,975.64
2022-11-17T00:19:51.658Z,975.61
2022-11-17T00:20:51.646Z,975.60
2022-11-17T00:21:51.656Z,975.50
2022-11-17T00:22:51.738Z,975.56
2022-11-17T00:23:51.618Z,975.55
2022-11-17T00:24:52.626Z,975.59
2022-11-17T00:25:51.622Z,975.57
2022-11-17T00:26:51.618Z,975.50
2022-11-17T00:27:51.598Z,975.55
2022-11-17T00:28:51.590Z,975.54
2022-11-17T00:29:51.578Z,975.47
2022-11-17T00:30:51.570Z,975.56
2022-11-17T00:31:52.596Z,975.50
2022-11-17T00:32:51.573Z,975.43
2022-11-17T00:33:51.563Z,975.41
2022-11-17T00:34:51.563Z,975.41
2022-11-17T00:35:51.539Z,975.38
2022-11-17T00:36:51.536Z,975.36
2022-11-17T00:37:51.552Z,975.30
2022-11-17T00:38:51.616Z,975.31
2022-11-17T00:39:55.217Z,975.28
2022-11-17T00:40:52.510Z,975.29
2022-11-17T00:41:51.493Z,975.29
2022-11-17T00:42:51.515Z,975.28
2022-11-17T00:43:51.507Z,975.23
2022-11-17T00:44:51.479Z,975.26
2022-11-17T00:45:51.474Z,975.17
2022-11-17T00:46:51.471Z,975.19
2022-11-17T00:47:51.489Z,975.17
2022-11-17T00:48:51.447Z,975.22
2022-11-17T00:49:51.439Z,975.19
2022-11-17T00:50:51.443Z,975.14
2022-11-17T00:51:51.451Z,975.06
2022-11-17T00:52:51.453Z,975.05
2022-11-17T00:53:51.414Z,975.03
2022-11-17T00:54:51.500Z,975.04
2022-11-17T00:55:51.451Z,975.01
2022-11-17T00:56:51.400Z,975.02
2022-11-17T00:57:51.391Z,974.95
2022-11-17T00:58:51.386Z,974.98
2022-11-17T00:59:51.382Z,974.98
2022-11-17T01:00:51.370Z,975.03
2022-11-17T01:01:51.441Z,974.96
2022-11-17T01:02:51.347Z,974.91
2022-11-17T01:03:51.355Z,974.95
2022-11-17T01:04:51.336Z,974.94
2022-11-17T01:05:51.339Z,974.94
2022-11-17T01:06:51.387Z,974.89
2022-11-17T01:07:51.311Z,974.94
2022-11-17T01:08:51.314Z,974.88
2022-11-17T01:09:51.308Z,974.94
2022-11-17T01:10:51.390Z,974.94
2022-11-17T01:11:51.287Z,974.94
2022-11-17T01:12:51.279Z,974.92
2022-11-17T01:13:51.270Z,974.90
2022-11-17T01:14:51.271Z,974.82
2022-11-17T01:15:51.276Z,974.80
2022-11-17T01:16:51.256Z,974.85
2022-11-17T01:17:51.254Z,974.79
2022-11-17T01:18:51.238Z,974.85
2022-11-17T01:19:51.234Z,974.80
2022-11-17T01:20:51.284Z,974.76
2022-11-17T01:21:51.237Z,974.78
2022-11-17T01:22:51.211Z,974.78
2022-11-17T01:23:51.299Z,974.75
2022-11-17T01:24:51.195Z,974.74
2022-11-17T01:25:51.190Z,974.78
2022-11-17T01:26:51.293Z,974.73
2022-11-17T01:27:51.179Z,974.75
2022-11-17T01:28:51.162Z,974.70
2022-11-17T01:29:51.167Z,974.74
2022-11-17T01:30:51.162Z,974.72
2022-11-17T01:31:51.160Z,974.69
2022-11-17T01:32:51.151Z,974.65
2022-11-17T01:33:51.130Z,974.70
2022-11-17T01:34:51.123Z,974.69
2022-11-17T01:35:51.105Z,974.62
2022-11-17T01:36:52.119Z,974.65
2022-11-17T01:37:51.109Z,974.62
2022-11-17T01:38:51.095Z,974.62
2022-11-17T01:39:51.091Z,974.58
2022-11-17T01:40:51.082Z,974.55
2022-11-17T01:41:51.065Z,974.60
2022-11-17T01:42:51.086Z,974.52
2022-11-17T01:43:51.059Z,974.53
2022-11-17T01:44:51.050Z,974.47
2022-11-17T01:45:51.039Z,974.48
2022-11-17T01:46:51.038Z,974.45
2022-11-17T01:47:51.038Z,974.46
2022-11-17T01:48:51.017Z,974.38
2022-11-17T01:49:51.045Z,974.35
2022-11-17T01:50:51.011Z,974.35
2022-11-17T01:51:51.017Z,974.34
2022-11-17T01:52:51.021Z,974.29
2022-11-17T01:53:50.990Z,974.37
2022-11-17T01:54:50.983Z,974.35
2022-11-17T01:55:50.975Z,974.29
2022-11-17T01:56:50.970Z,974.25
2022-11-17T01:57:50.958Z,974.25
2022-11-17T01:58:51.036Z,974.20
2022-11-17T01:59:50.949Z,974.13
2022-11-17T02:00:50.952Z,974.13
2022-11-17T02:01:50.995Z,974.08
2022-11-17T02:02:50.944Z,974.08
2022-11-17T02:03:50.926Z,974.10
2022-11-17T02:04:50.910Z,974.07
2022-11-17T02:05:50.902Z,974.09
2022-11-17T02:06:50.984Z,974.02
2022-11-17T02:07:50.906Z,973.96
2022-11-17T02:08:50.885Z,973.95
2022-11-17T02:09:50.881Z,973.90
2022-11-17T02:10:51.915Z,973.96
2022-11-17T02:11:51.861Z,973.98
2022-11-17T02:12:50.856Z,973.92
2022-11-17T02:13:50.870Z,973.98
2022-11-17T02:14:50.936Z,974.02
2022-11-17T02:15:50.834Z,973.98
2022-11-17T02:16:51.336Z,973.95
2022-11-17T02:17:50.820Z,974.04
2022-11-17T02:18:50.827Z,973.99
2022-11-17T02:19:50.809Z,974.00
2022-11-17T02:20:50.793Z,973.98
2022-11-17T02:21:50.789Z,973.97
2022-11-17T02:22:50.772Z,973.93
2022-11-17T02:23:50.772Z,973.96
2022-11-17T02:24:50.792Z,973.93
2022-11-17T02:25:50.776Z,973.93
2022-11-17T02:26:50.761Z,973.89
2022-11-17T02:27:50.748Z,973.92
2022-11-17T02:28:50.737Z,973.86
2022-11-17T02:29:50.721Z,973.91
2022-11-17T02:30:50.827Z,973.85
2022-11-17T02:31:50.722Z,973.82
2022-11-17T02:32:50.704Z,973.86
2022-11-17T02:33:50.700Z,973.87
2022-11-17T02:34:50.693Z,973.73
2022-11-17T02:35:50.683Z,973.75
2022-11-17T02:36:50.687Z,973.71
2022-11-17T02:37:50.680Z,973.69
2022-11-17T02:38:50.652Z,973.75
2022-11-17T02:39:50.654Z,973.66
2022-11-17T02:40:50.644Z,973.64
2022-11-17T02:41:50.655Z,973.62
2022-11-17T02:42:50.639Z,973.63
2022-11-17T02:43:50.627Z,973.63
2022-11-17T02:44:50.620Z,973.57
2022-11-17T02:45:50.625Z,973.55
2022-11-17T02:46:50.627Z,973.57
2022-11-17T02:47:50.596Z,973.53
2022-11-17T02:48:50.596Z,973.52
2022-11-17T02:49:50.583Z,973.56
2022-11-17T02:50:50.578Z,973.47
2022-11-17T02:51:50.592Z,973.50
2022-11-17T02:52:50.559Z,973.44
2022-11-17T02:53:50.552Z,973.34
2022-11-17T02:54:50.548Z,973.35
2022-11-17T02:55:50.540Z,973.33
2022-11-17T02:56:50.528Z,973.28
2022-11-17T02:57:50.574Z,973.20
2022-11-17T02:58:50.519Z,973.12
2022-11-17T02:59:50.504Z,973.10
2022-11-17T03:00:50.512Z,973.11
2022-11-17T03:01:50.628Z,973.08
2022-11-17T03:02:50.495Z,973.12
2022-11-17T03:03:50.498Z,973.07
2022-11-17T03:04:50.495Z,973.09
2022-11-17T03:05:50.467Z,973.06
2022-11-17T03:06:50.490Z,973.08
2022-11-17T03:07:50.458Z,973.02
2022-11-17T03:08:50.455Z,972.92
2022-11-17T03:09:50.440Z,973.04
2022-11-17T03:10:50.443Z,973.01
2022-11-17T03:11:50.418Z,973.05
2022-11-17T03:12:50.412Z,973.02
2022-11-17T03:13:50.424Z,973.04
2022-11-17T03:14:50.402Z,973.04
2022-11-17T03:15:50.434Z,973.06
2022-11-17T03:16:50.391Z,973.03
2022-11-17T03:17:50.383Z,973.02
2022-11-17T03:18:50.456Z,972.97
2022-11-17T03:19:50.375Z,972.91
2022-11-17T03:20:50.383Z,972.89
2022-11-17T03:21:50.434Z,972.89
2022-11-17T03:22:50.355Z,972.91
2022-11-17T03:23:50.351Z,972.90
2022-11-17T03:24:50.330Z,972.82
2022-11-17T03:25:50.353Z,972.82
2022-11-17T03:26:50.317Z,972.77
2022-11-17T03:27:50.319Z,972.72
2022-11-17T03:28:50.304Z,972.68
2022-11-17T03:29:50.300Z,972.71
2022-11-17T03:30:50.297Z,972.65
2022-11-17T03:31:50.285Z,972.66
2022-11-17T03:32:50.284Z,972.68
2022-11-17T03:33:50.280Z,972.65
2022-11-17T03:34:50.267Z,972.69
2022-11-17T03:35:50.904Z,972.63
2022-11-17T03:36:51.272Z,972.63
2022-11-17T03:37:50.269Z,972.59
2022-11-17T03:38:50.242Z,972.59
2022-11-17T03:39:50.236Z,972.51
2022-11-17T03:40:50.219Z,972.53
2022-11-17T03:41:50.216Z,972.57
2022-11-17T03:42:50.228Z,972.58
2022-11-17T03:43:50.209Z,972.53
2022-11-17T03:44:50.196Z,972.49
2022-11-17T03:45:50.196Z,972.49
2022-11-17T03:46:50.189Z,972.50
2022-11-17T03:47:50.189Z,972.41
2022-11-17T03:48:50.196Z,972.45
2022-11-17T03:49:50.153Z,972.49
2022-11-17T03:50:50.296Z,972.40
2022-11-17T03:51:50.152Z,972.47
2022-11-17T03:52:50.160Z,972.36
2022-11-17T03:53:50.133Z,972.31
2022-11-17T03:54:50.123Z,972.33
2022-11-17T03:55:50.125Z,972.26
2022-11-17T03:56:50.109Z,972.29
2022-11-17T03:57:50.110Z,972.28
2022-11-17T03:58:50.111Z,972.27
2022-11-17T03:59:50.088Z,972.15
2022-11-17T04:00:50.084Z,972.26
2022-11-17T04:01:50.115Z,972.24
2022-11-17T04:02:50.067Z,972.16
2022-11-17T04:03:50.076Z,972.23
2022-11-17T04:04:50.055Z,972.10
2022-11-17T04:05:50.039Z,972.12
2022-11-17T04:06:50.210Z,972.10
2022-11-17T04:07:50.051Z,972.10
2022-11-17T04:08:50.052Z,971.99
2022-11-17T04:09:50.031Z,972.12
2022-11-17T04:10:50.023Z,972.19
2022-11-17T04:11:50.020Z,972.14
2022-11-17T04:12:50.009Z,972.22
2022-11-17T04:13:50.019Z,972.24
2022-11-17T04:14:49.993Z,972.20
2022-11-17T04:15:49.993Z,972.18
2022-11-17T04:16:49.977Z,972.16
2022-11-17T04:17:49.968Z,972.20
2022-11-17T04:18:54.489Z,972.17
2022-11-17T04:19:51.956Z,972.12
2022-11-17T04:20:49.957Z,972.17
2022-11-17T04:21:49.950Z,972.14
2022-11-17T04:22:50.032Z,972.06
2022-11-17T04:23:49.937Z,972.04
2022-11-17T04:24:49.949Z,972.05
2022-11-17T04:25:49.915Z,971.99
2022-11-17T04:26:49.912Z,972.03
2022-11-17T04:27:49.909Z,972.00
2022-11-17T04:28:49.903Z,971.98
2022-11-17T04:29:49.904Z,971.99
2022-11-17T04:30:49.915Z,971.97
2022-11-17T04:31:49.875Z,971.99
2022-11-17T04:32:49.872Z,972.03
2022-11-17T04:33:49.860Z,971.95
2022-11-17T04:34:49.851Z,971.98
2022-11-17T04:35:49.855Z,971.98
2022-11-17T04:36:49.837Z,971.96
2022-11-17T04:37:49.837Z,971.97
2022-11-17T04:38:49.915Z,972.08
2022-11-17T04:39:50.812Z,972.04
2022-11-17T04:40:49.907Z,972.06
2022-11-17T04:41:49.805Z,972.06
2022-11-17T04:42:49.774Z,972.06
2022-11-17T04:43:49.783Z,972.02
2022-11-17T04:44:49.783Z,972.02
2022-11-17T04:45:49.788Z,971.98
2022-11-17T04:46:49.763Z,972.02
2022-11-17T04:47:49.763Z,972.08
2022-11-17T04:48:49.756Z,972.07
2022-11-17T04:49:49.745Z,972.11
2022-11-17T04:50:49.747Z,972.02
2022-11-17T04:51:49.727Z,972.07
2022-11-17T04:52:49.720Z,972.08
2022-11-17T04:53:50.757Z,972.17
2022-11-17T04:54:49.806Z,972.12
2022-11-17T04:55:49.691Z,972.15
2022-11-17T04:56:49.711Z,972.06
2022-11-17T04:57:49.700Z,972.11
2022-11-17T04:58:49.668Z,972.16
2022-11-17T04:59:49.660Z,972.08
2022-11-17T05:00:50.670Z,972.11
2022-11-17T05:01:49.734Z,972.23
2022-11-17T05:02:49.656Z,972.12
2022-11-17T05:03:49.649Z,972.04
2022-11-17T05:04:49.631Z,972.01
2022-11-17T05:05:49.633Z,972.02
2022-11-17T05:06:49.706Z,972.02
2022-11-17T05:07:49.629Z,972.02
2022-11-17T05:08:50.620Z,971.94
2022-11-17T05:09:49.615Z,971.88
2022-11-17T05:10:49.653Z,971.89
2022-11-17T05:11:49.606Z,971.84
2022-11-17T05:12:49.614Z,971.97
2022-11-17T05:13:49.577Z,971.99
2022-11-17T05:14:49.576Z,972.02
2022-11-17T05:15:49.574Z,972.01
2022-11-17T05:16:49.552Z,972.00
2022-11-17T05:17:49.554Z,972.06
2022-11-17T05:18:49.560Z,972.02
2022-11-17T05:19:49.549Z,972.04
2022-11-17T05:20:49.534Z,972.00
2022-11-17T05:21:49.517Z,971.98
2022-11-17T05:22:50.513Z,971.99
2022-11-17T05:23:49.521Z,971.97
2022-11-17T05:24:49.527Z,971.95
2022-11-17T05:25:49.498Z,971.77
2022-11-17T05:26:49.492Z,971.82
2022-11-17T05:27:49.491Z,971.85
2022-11-17T05:28:49.480Z,971.85
2022-11-17T05:29:49.493Z,971.77
2022-11-17T05:30:49.481Z,971.69
2022-11-17T05:31:49.469Z,971.79
2022-11-17T05:32:49.461Z,971.71
2022-11-17T05:33:49.465Z,971.65
2022-11-17T05:34:49.469Z,971.67
2022-11-17T05:35:49.479Z,971.58
2022-11-17T05:36:49.433Z,971.58
2022-11-17T05:37:49.430Z,971.58
2022-11-17T05:38:49.424Z,971.50
2022-11-17T05:39:49.436Z,971.47
2022-11-17T05:40:49.408Z,971.44
2022-11-17T05:41:49.400Z,971.46
2022-11-17T05:42:54.300Z,971.48
2022-11-17T05:43:51.389Z,971.43
2022-11-17T05:44:49.399Z,971.37
2022-11-17T05:45:49.380Z,971.40
2022-11-17T05:46:49.374Z,971.32
2022-11-17T05:47:49.364Z,971.40
2022-11-17T05:48:49.363Z,971.42
2022-11-17T05:49:49.373Z,971.37
2022-11-17T05:50:49.357Z,971.36
2022-11-17T05:51:52.667Z,971.35
2022-11-17T05:52:50.328Z,971.36
2022-11-17T05:53:49.325Z,971.37
2022-11-17T05:54:49.321Z,971.33
2022-11-17T05:55:49.324Z,971.35
2022-11-17T05:56:49.293Z,971.33
2022-11-17T05:57:49.298Z,971.30
2022-11-17T05:58:49.387Z,971.27
2022-11-17T05:59:49.284Z,971.30
2022-11-17T06:00:49.293Z,971.32
2022-11-17T06:01:49.277Z,971.30
2022-11-17T06:02:49.256Z,971.38
2022-11-17T06:03:49.289Z,971.23
2022-11-17T06:04:49.245Z,971.12
2022-11-17T06:05:49.241Z,971.14
2022-11-17T06:06:49.394Z,971.15
2022-11-17T06:07:49.234Z,971.16
2022-11-17T06:08:49.225Z,971.27
2022-11-17T06:09:49.220Z,971.27
2022-11-17T06:10:49.213Z,971.28
2022-11-17T06:11:49.213Z,971.14
2022-11-17T06:12:49.196Z,971.21
2022-11-17T06:13:49.192Z,971.24
2022-11-17T06:14:49.199Z,971.13
2022-11-17T06:15:49.172Z,971.11
2022-11-17T06:16:49.169Z,971.17
2022-11-17T06:17:49.165Z,971.20
2022-11-17T06:18:49.153Z,971.12
2022-11-17T06:19:49.157Z,971.11
2022-11-17T06:20:49.142Z,971.10
2022-11-17T06:22:11.073Z,971.08
2022-11-17T06:22:51.150Z,971.19
2022-11-17T06:23:49.125Z,971.19
2022-11-17T06:24:49.105Z,971.13
2022-11-17T06:25:49.128Z,971.13
2022-11-17T06:26:49.092Z,971.14
2022-11-17T06:27:49.100Z,971.10
2022-11-17T06:28:49.115Z,971.07
2022-11-17T06:29:49.085Z,971.00
2022-11-17T06:30:49.077Z,971.05
2022-11-17T06:31:49.060Z,971.02
2022-11-17T06:32:49.085Z,971.05
2022-11-17T06:33:49.048Z,970.96
2022-11-17T06:34:54.922Z,970.92
2022-11-17T06:35:51.050Z,971.02
2022-11-17T06:36:49.017Z,971.08
2022-11-17T06:37:50.036Z,971.02
2022-11-17T06:38:49.016Z,971.12
2022-11-17T06:39:49.012Z,971.13
2022-11-17T06:40:48.995Z,971.01
2022-11-17T06:41:49.013Z,970.97
2022-11-17T06:42:48.977Z,971.03
2022-11-17T06:43:48.981Z,970.98
2022-11-17T06:44:48.967Z,970.99
2022-11-17T06:45:48.966Z,971.06
2022-11-17T06:46:49.493Z,971.08
2022-11-17T06:47:49.957Z,971.05
2022-11-17T06:48:48.929Z,971.13
2022-11-17T06:49:48.947Z,971.05
2022-11-17T06:50:48.937Z,971.04
2022-11-17T06:51:48.943Z,971.09
2022-11-17T06:52:48.929Z,971.22
2022-11-17T06:53:48.921Z,971.18
2022-11-17T06:54:48.910Z,971.11
2022-11-17T06:55:48.920Z,971.20
2022-11-17T06:56:48.929Z,971.11
2022-11-17T06:57:53.197Z,971.18
2022-11-17T06:58:49.877Z,971.20
2022-11-17T06:59:48.881Z,971.16
2022-11-17T07:00:48.963Z,971.22
2022-11-17T07:01:48.869Z,971.20
2022-11-17T07:02:48.985Z,971.13
2022-11-17T07:03:48.858Z,971.15
2022-11-17T07:04:48.871Z,971.20
2022-11-17T07:05:48.847Z,971.24
2022-11-17T07:06:48.837Z,971.20
2022-11-17T07:07:48.837Z,971.28
2022-11-17T07:08:48.833Z,971.10
2022-11-17T07:09:48.834Z,971.21
2022-11-17T07:10:49.524Z,971.10
2022-11-17T07:11:49.810Z,971.13
2022-11-17T07:12:48.825Z,971.05
2022-11-17T07:13:48.797Z,971.09
2022-11-17T07:14:48.787Z,970.98
2022-11-17T07:15:48.782Z,971.05
2022-11-17T07:16:48.775Z,971.03
2022-11-17T07:17:48.782Z,971.03
2022-11-17T07:18:48.832Z,971.12
2022-11-17T07:19:48.766Z,971.12
2022-11-17T07:20:48.751Z,971.08
2022-11-17T07:21:48.727Z,971.05
2022-11-17T07:22:48.734Z,971.01
2022-11-17T07:23:48.744Z,970.96
2022-11-17T07:24:48.705Z,971.00
2022-11-17T07:25:48.726Z,971.07
2022-11-17T07:26:48.697Z,971.12
2022-11-17T07:27:48.697Z,971.06
2022-11-17T07:28:48.681Z,971.08
2022-11-17T07:29:48.670Z,970.98
2022-11-17T07:30:48.694Z,971.12
2022-11-17T07:31:48.663Z,971.13
2022-11-17T07:32:54.397Z,971.15
2022-11-17T07:33:50.654Z,971.03
2022-11-17T07:34:48.644Z,971.10
2022-11-17T07:35:48.642Z,971.21
2022-11-17T07:36:48.645Z,971.13
2022-11-17T07:37:48.625Z,971.09
2022-11-17T07:38:48.614Z,971.10
2022-11-17T07:39:48.617Z,970.99
2022-11-17T07:40:48.597Z,971.15
2022-11-17T07:41:48.623Z,971.19
2022-11-17T07:42:48.613Z,971.04
2022-11-17T07:43:48.574Z,971.00
2022-11-17T07:44:48.579Z,970.90
2022-11-17T07:45:48.580Z,970.94
2022-11-17T07:46:48.586Z,970.94
2022-11-17T07:47:48.557Z,970.89
2022-11-17T07:48:48.553Z,970.82
2022-11-17T07:49:48.545Z,970.90
2022-11-17T07:50:48.629Z,970.84
2022-11-17T07:51:48.533Z,970.92
2022-11-17T07:52:48.545Z,970.87
2022-11-17T07:53:48.512Z,970.88
2022-11-17T07:54:48.533Z,970.82
2022-11-17T07:55:48.501Z,970.77
2022-11-17T07:56:48.493Z,970.76
2022-11-17T07:57:48.493Z,970.81
2022-11-17T07:58:48.481Z,970.86
2022-11-17T07:59:48.497Z,970.84
2022-11-17T08:00:48.539Z,970.83
2022-11-17T08:01:48.462Z,970.80
2022-11-17T08:02:48.463Z,970.84
2022-11-17T08:03:48.608Z,970.75
2022-11-17T08:04:48.446Z,970.78
2022-11-17T08:05:48.461Z,970.67
2022-11-17T08:06:48.534Z,970.67
2022-11-17T08:07:48.429Z,970.67
2022-11-17T08:08:48.483Z,970.68
2022-11-17T08:09:48.421Z,970.69
2022-11-17T08:10:48.437Z,970.69
2022-11-17T08:11:48.417Z,970.64
2022-11-17T08:12:48.409Z,970.74
2022-11-17T08:13:48.393Z,970.72
2022-11-17T08:14:48.376Z,970.77
2022-11-17T08:15:48.380Z,970.79
2022-11-17T08:16:48.373Z,970.86
2022-11-17T08:17:48.373Z,970.79
2022-11-17T08:18:52.195Z,970.92
2022-11-17T08:19:49.349Z,970.80
2022-11-17T08:20:48.336Z,970.79
2022-11-17T08:21:48.340Z,970.87
2022-11-17T08:22:48.338Z,970.82
2022-11-17T08:23:48.328Z,970.85
2022-11-17T08:24:48.320Z,970.98
2022-11-17T08:25:48.316Z,970.86
2022-11-17T08:26:48.300Z,970.91
2022-11-17T08:27:48.306Z,970.92
2022-11-17T08:28:52.182Z,970.85
2022-11-17T08:29:49.285Z,970.83
2022-11-17T08:30:48.409Z,971.01
2022-11-17T08:31:48.280Z,970.88
2022-11-17T08:32:48.261Z,970.82
2022-11-17T08:33:48.257Z,970.85
2022-11-17T08:34:48.273Z,970.89
2022-11-17T08:35:48.259Z,970.79
2022-11-17T08:36:48.238Z,970.77
2022-11-17T08:37:48.241Z,970.72
2022-11-17T08:38:48.228Z,970.73
2022-11-17T08:39:48.245Z,970.69
2022-11-17T08:40:48.208Z,970.74
2022-11-17T08:41:48.210Z,970.72
2022-11-17T08:42:48.204Z,970.78
2022-11-17T08:43:48.195Z,970.79
2022-11-17T08:44:48.200Z,970.79
2022-11-17T08:45:48.176Z,970.79
2022-11-17T08:46:48.181Z,970.67
2022-11-17T08:47:48.157Z,970.73
2022-11-17T08:48:52.246Z,970.71
2022-11-17T08:49:50.168Z,970.72
2022-11-17T08:50:48.160Z,970.82
2022-11-17T08:51:48.136Z,970.69
2022-11-17T08:52:48.127Z,970.86
2022-11-17T08:53:48.144Z,970.79
2022-11-17T08:54:48.120Z,970.76
2022-11-17T08:55:48.201Z,970.81
2022-11-17T08:56:48.136Z,970.83
2022-11-17T08:57:48.087Z,970.82
2022-11-17T08:58:48.110Z,970.92
2022-11-17T08:59:48.103Z,970.89
2022-11-17T09:00:48.144Z,970.83
2022-11-17T09:01:48.167Z,970.81
2022-11-17T09:02:48.072Z,970.78
2022-11-17T09:03:48.079Z,970.77
2022-11-17T09:04:48.071Z,970.79
2022-11-17T09:05:48.065Z,970.81
2022-11-17T09:06:48.056Z,970.76
2022-11-17T09:07:48.220Z,970.83
2022-11-17T09:08:48.097Z,970.79
2022-11-17T09:09:48.012Z,970.80
2022-11-17T09:10:48.132Z,970.76
2022-11-17T09:11:48.039Z,970.78
2022-11-17T09:12:47.984Z,970.82
2022-11-17T09:13:48.007Z,970.84
2022-11-17T09:14:47.983Z,970.88
2022-11-17T09:15:47.974Z,970.77
2022-11-17T09:16:47.971Z,970.75
2022-11-17T09:17:47.952Z,970.79
2022-11-17T09:18:49.116Z,970.74
2022-11-17T09:19:47.943Z,970.75
2022-11-17T09:20:47.940Z,970.74
2022-11-17T09:21:47.939Z,970.68
2022-11-17T09:22:47.941Z,970.70
2022-11-17T09:23:47.957Z,970.68
2022-11-17T09:24:47.910Z,970.64
2022-11-17T09:25:47.908Z,970.71
2022-11-17T09:26:47.988Z,970.68
2022-11-17T09:27:47.903Z,970.65
2022-11-17T09:28:48.278Z,970.67
2022-11-17T09:29:47.880Z,970.69
2022-11-17T09:30:47.868Z,970.69
2022-11-17T09:31:47.931Z,970.61
2022-11-17T09:32:47.907Z,970.65
2022-11-17T09:33:47.849Z,970.65
2022-11-17T09:34:47.885Z,970.62
2022-11-17T09:35:47.838Z,970.66
2022-11-17T09:36:47.832Z,970.73
2022-11-17T09:37:47.806Z,970.72
2022-11-17T09:38:47.799Z,970.69
2022-11-17T09:39:47.813Z,970.66
2022-11-17T09:40:47.790Z,970.72
2022-11-17T09:41:47.811Z,970.67
2022-11-17T09:42:47.783Z,970.66
2022-11-17T09:43:47.776Z,970.67
2022-11-17T09:44:47.800Z,970.69
2022-11-17T09:45:47.817Z,970.69
2022-11-17T09:46:47.754Z,970.69
2022-11-17T09:47:47.748Z,970.68
2022-11-17T09:48:47.778Z,970.71
2022-11-17T09:49:50.017Z,970.74
2022-11-17T09:50:48.739Z,970.68
2022-11-17T09:51:47.718Z,970.68
2022-11-17T09:52:47.736Z,970.65
2022-11-17T09:53:47.736Z,970.66
2022-11-17T09:54:47.686Z,970.69
2022-11-17T09:55:47.689Z,970.70
2022-11-17T09:56:47.708Z,970.66
2022-11-17T09:57:47.684Z,970.66
2022-11-17T09:58:47.725Z,970.73
2022-11-17T09:59:47.666Z,970.67
2022-11-17T10:00:47.659Z,970.80
2022-11-17T10:01:47.741Z,970.73
2022-11-17T10:02:47.640Z,970.73
2022-11-17T10:03:48.013Z,970.77
2022-11-17T10:04:47.652Z,970.80
2022-11-17T10:05:47.628Z,970.79
2022-11-17T10:06:47.603Z,970.68
2022-11-17T10:07:47.619Z,970.74
2022-11-17T10:08:47.627Z,970.75
2022-11-17T10:09:47.596Z,970.77
2022-11-17T10:10:47.581Z,970.73
2022-11-17T10:11:47.583Z,970.72
2022-11-17T10:12:47.588Z,970.75
2022-11-17T10:13:47.563Z,970.77
2022-11-17T10:14:47.555Z,970.77
2022-11-17T10:15:47.557Z,970.80
2022-11-17T10:16:47.544Z,970.84
2022-11-17T10:17:47.556Z,970.77
2022-11-17T10:18:47.522Z,970.82
2022-11-17T10:19:47.523Z,970.89
2022-11-17T10:20:47.532Z,970.80
2022-11-17T10:21:47.512Z,970.88
2022-11-17T10:22:47.503Z,970.93
2022-11-17T10:23:47.864Z,970.93
2022-11-17T10:24:47.481Z,970.93
2022-11-17T10:25:47.500Z,970.96
2022-11-17T10:26:47.476Z,970.95
2022-11-17T10:27:47.472Z,970.96
2022-11-17T10:28:47.487Z,970.96
2022-11-17T10:29:47.464Z,970.92
2022-11-17T10:30:47.541Z,970.94
2022-11-17T10:31:47.496Z,970.96
2022-11-17T10:32:48.349Z,970.92
2022-11-17T10:33:48.496Z,970.90
2022-11-17T10:34:47.441Z,970.87
2022-11-17T10:35:47.413Z,970.87
2022-11-17T10:36:47.411Z,970.85
2022-11-17T10:37:47.399Z,970.96
2022-11-17T10:38:47.400Z,970.94
2022-11-17T10:39:47.391Z,970.93
2022-11-17T10:40:47.379Z,970.95
2022-11-17T10:41:47.384Z,970.95
2022-11-17T10:42:47.384Z,971.01
2022-11-17T10:43:47.376Z,971.06
2022-11-17T10:44:47.385Z,971.04
2022-11-17T10:45:47.343Z,971.07
2022-11-17T10:46:47.341Z,970.98
2022-11-17T10:47:47.328Z,971.03
2022-11-17T10:48:47.375Z,971.03
2022-11-17T10:49:47.319Z,971.02
2022-11-17T10:50:47.319Z,970.99
2022-11-17T10:51:47.274Z,970.89
2022-11-17T10:52:47.299Z,970.95
2022-11-17T10:53:47.659Z,970.84
2022-11-17T10:54:47.282Z,970.77
2022-11-17T10:55:47.288Z,970.69
2022-11-17T10:56:47.265Z,970.62
2022-11-17T10:57:47.268Z,970.60
2022-11-17T10:58:47.238Z,970.65
2022-11-17T10:59:50.755Z,970.62
2022-11-17T11:00:48.312Z,970.65
2022-11-17T11:01:47.314Z,970.68
2022-11-17T11:02:47.219Z,970.66
2022-11-17T11:03:47.228Z,970.59
2022-11-17T11:04:47.208Z,970.57
2022-11-17T11:05:47.358Z,970.56
2022-11-17T11:06:47.205Z,970.54
2022-11-17T11:07:47.180Z,970.60
2022-11-17T11:08:47.191Z,970.62
2022-11-17T11:09:47.171Z,970.58
2022-11-17T11:10:47.201Z,970.63
2022-11-17T11:11:47.170Z,970.64
2022-11-17T11:12:47.155Z,970.71
2022-11-17T11:13:47.179Z,970.71
2022-11-17T11:14:47.133Z,970.69
2022-11-17T11:15:47.132Z,970.72
2022-11-17T11:16:48.373Z,970.68
2022-11-17T11:17:48.119Z,970.70
2022-11-17T11:18:47.108Z,970.65
2022-11-17T11:19:47.104Z,970.69
2022-11-17T11:20:47.100Z,970.70
2022-11-17T11:21:47.139Z,970.76
2022-11-17T11:22:47.067Z,970.78
2022-11-17T11:23:47.069Z,970.72
2022-11-17T11:24:47.069Z,970.66
2022-11-17T11:25:47.047Z,970.69
2022-11-17T11:26:47.050Z,970.72
2022-11-17T11:27:47.269Z,970.73
2022-11-17T11:28:51.289Z,970.68
2022-11-17T11:29:49.019Z,970.67
2022-11-17T11:30:47.032Z,970.68
2022-11-17T11:31:47.031Z,970.69
2022-11-17T11:32:47.015Z,970.69
2022-11-17T11:33:46.995Z,970.66
2022-11-17T11:34:46.987Z,970.67
2022-11-17T11:35:46.984Z,970.66
2022-11-17T11:36:46.967Z,970.72
2022-11-17T11:37:46.986Z,970.69
2022-11-17T11:38:46.964Z,970.70
2022-11-17T11:39:46.956Z,970.73
2022-11-17T11:40:46.955Z,970.76
2022-11-17T11:41:46.944Z,970.68
2022-11-17T11:42:46.941Z,970.75
2022-11-17T11:43:46.955Z,970.72
2022-11-17T11:44:46.941Z,970.69
2022-11-17T11:45:46.908Z,970.77
2022-11-17T11:46:46.894Z,970.72
2022-11-17T11:47:46.895Z,970.68
2022-11-17T11:48:46.908Z,970.75
2022-11-17T11:49:46.897Z,970.71
2022-11-17T11:50:46.880Z,970.69
2022-11-17T11:51:46.868Z,970.71
2022-11-17T11:52:46.859Z,970.81
2022-11-17T11:53:46.855Z,970.75
2022-11-17T11:54:50.761Z,970.74
2022-11-17T11:55:46.844Z,970.77
2022-11-17T11:56:46.844Z,970.77
2022-11-17T11:57:46.836Z,970.78
2022-11-17T11:58:46.825Z,970.85
2022-11-17T11:59:46.823Z,970.89
2022-11-17T12:00:46.832Z,970.82
2022-11-17T12:01:46.837Z,970.79
2022-11-17T12:02:46.852Z,970.83
2022-11-17T12:03:46.799Z,970.80
2022-11-17T12:04:46.780Z,970.71
2022-11-17T12:05:46.791Z,970.74
2022-11-17T12:06:46.776Z,970.77
2022-11-17T12:07:46.762Z,970.73
2022-11-17T12:08:46.773Z,970.83
2022-11-17T12:09:46.750Z,970.78
2022-11-17T12:10:46.750Z,970.78
2022-11-17T12:11:46.747Z,970.81
2022-11-17T12:12:46.746Z,970.85
2022-11-17T12:13:52.715Z,970.83
2022-11-17T12:14:48.742Z,970.84
2022-11-17T12:15:46.743Z,970.84
2022-11-17T12:16:46.713Z,970.82
2022-11-17T12:17:46.712Z,970.86
2022-11-17T12:18:46.775Z,970.88
2022-11-17T12:19:46.717Z,970.88
2022-11-17T12:20:46.690Z,970.88
2022-11-17T12:21:46.693Z,970.92
2022-11-17T12:22:46.687Z,970.95
2022-11-17T12:23:46.664Z,970.93
2022-11-17T12:24:46.667Z,970.95
2022-11-17T12:25:50.588Z,971.00
2022-11-17T12:26:48.646Z,970.97
2022-11-17T12:27:46.651Z,970.99
2022-11-17T12:28:46.638Z,971.01